sensor_id;sensor_type;location;lat;lon;timestamp;P1;durP1;ratioP1;P2;durP2;ratioP2
29384;SDS011;16367;48.736;9.218;2022-10-19T00:00:31;29.30;;;10.70;;
29384;SDS011;16367;48.736;9.218;2022-10-19T00:02:34;31.25;;;12.38;;
29384;SDS011;16367;48.736;9.218;2022-10-19T00:04:37;26.05;;;11.25;;
29384;SDS011;16367;48.736;9.218;2022-10-19T00:06:41;26.77;;;10.90;;
29384;SDS011;16367;48.736;9.218;2022-10-19T00:08:45;23.30;;;10.82;;
29384;SDS011;16367;48.736;9.218;2022-10-19T00:10:48;24.48;;;9.23;;
29384;SDS011;16367;48.736;9.218;2022-10-19T00:12:50;26.63;;;10.75;;
29384;SDS011;16367;48.736;9.218;2022-10-19T00:14:53;30.13;;;11.15;;
29384;SDS011;16367;48.736;9.218;2022-10-19T00:16:55;27.13;;;10.52;;
29384;SDS011;16367;48.736;9.218;2022-10-19T00:18:59;29.30;;;11.27;;
29384;SDS011;16367;48.736;9.218;2022-10-19T00:21:06;27.20;;;11.15;;
29384;SDS011;16367;48.736;9.218;2022-10-19T00:23:11;32.22;;;12.25;;
29384;SDS011;16367;48.736;9.218;2022-10-19T00:25:14;34.17;;;12.10;;
29384;SDS011;16367;48.736;9.218;2022-10-19T00:27:17;32.00;;;12.35;;
29384;SDS011;16367;48.736;9.218;2022-10-19T00:29:20;32.67;;;12.43;;
29384;SDS011;16367;48.736;9.218;2022-10-19T00:31:23;32.45;;;12.20;;
29384;SDS011;16367;48.736;9.218;2022-10-19T00:33:26;28.67;;;11.50;;
29384;SDS011;16367;48.736;9.218;2022-10-19T00:35:29;36.03;;;13.50;;
29384;SDS011;16367;48.736;9.218;2022-10-19T00:37:32;34.80;;;12.50;;
29384;SDS011;16367;48.736;9.218;2022-10-19T00:39:36;33.70;;;13.50;;
29384;SDS011;16367;48.736;9.218;2022-10-19T00:41:39;35.17;;;12.98;;
29384;SDS011;16367;48.736;9.218;2022-10-19T00:43:48;37.22;;;14.07;;
29384;SDS011;16367;48.736;9.218;2022-10-19T00:45:53;45.92;;;15.55;;
29384;SDS011;16367;48.736;9.218;2022-10-19T00:47:55;51.45;;;15.07;;
29384;SDS011;16367;48.736;9.218;2022-10-19T00:49:58;48.38;;;15.77;;
29384;SDS011;16367;48.736;9.218;2022-10-19T00:52:02;44.67;;;15.57;;
29384;SDS011;16367;48.736;9.218;2022-10-19T00:54:07;60.20;;;16.85;;
29384;SDS011;16367;48.736;9.218;2022-10-19T00:56:12;59.20;;;17.77;;
29384;SDS011;16367;48.736;9.218;2022-10-19T00:58:16;57.80;;;17.67;;
29384;SDS011;16367;48.736;9.218;2022-10-19T01:00:19;66.65;;;18.80;;
29384;SDS011;16367;48.736;9.218;2022-10-19T01:02:22;64.50;;;17.92;;
29384;SDS011;16367;48.736;9.218;2022-10-19T01:04:25;62.38;;;17.77;;
29384;SDS011;16367;48.736;9.218;2022-10-19T01:06:29;101.65;;;20.90;;
29384;SDS011;16367;48.736;9.218;2022-10-19T01:08:32;148.48;;;22.20;;
29384;SDS011;16367;48.736;9.218;2022-10-19T01:10:37;161.73;;;24.73;;
29384;SDS011;16367;48.736;9.218;2022-10-19T01:13:00;100.80;;;20.38;;
29384;SDS011;16367;48.736;9.218;2022-10-19T01:15:15;104.20;;;21.30;;
29384;SDS011;16367;48.736;9.218;2022-10-19T01:17:30;149.80;;;23.92;;
29384;SDS011;16367;48.736;9.218;2022-10-19T01:19:54;200.52;;;26.10;;
29384;SDS011;16367;48.736;9.218;2022-10-19T01:22:24;268.27;;;29.80;;
29384;SDS011;16367;48.736;9.218;2022-10-19T01:24:38;250.05;;;25.65;;
29384;SDS011;16367;48.736;9.218;2022-10-19T01:27:03;125.70;;;20.65;;
29384;SDS011;16367;48.736;9.218;2022-10-19T01:29:27;251.82;;;26.55;;
29384;SDS011;16367;48.736;9.218;2022-10-19T01:31:45;269.38;;;27.88;;
29384;SDS011;16367;48.736;9.218;2022-10-19T01:33:53;281.10;;;29.92;;
29384;SDS011;16367;48.736;9.218;2022-10-19T01:36:05;283.75;;;31.17;;
29384;SDS011;16367;48.736;9.218;2022-10-19T01:38:21;318.00;;;34.35;;
29384;SDS011;16367;48.736;9.218;2022-10-19T01:40:28;262.25;;;28.27;;
29384;SDS011;16367;48.736;9.218;2022-10-19T01:42:37;308.33;;;31.65;;
29384;SDS011;16367;48.736;9.218;2022-10-19T01:44:47;286.00;;;29.67;;
29384;SDS011;16367;48.736;9.218;2022-10-19T01:48:59;269.85;;;28.10;;
29384;SDS011;16367;48.736;9.218;2022-10-19T01:51:06;317.95;;;32.30;;
29384;SDS011;16367;48.736;9.218;2022-10-19T01:53:14;269.15;;;29.42;;
29384;SDS011;16367;48.736;9.218;2022-10-19T01:55:19;168.68;;;22.58;;
29384;SDS011;16367;48.736;9.218;2022-10-19T01:57:28;305.13;;;28.77;;
29384;SDS011;16367;48.736;9.218;2022-10-19T01:59:34;201.88;;;24.88;;
29384;SDS011;16367;48.736;9.218;2022-10-19T02:01:38;236.82;;;25.67;;
29384;SDS011;16367;48.736;9.218;2022-10-19T02:03:46;281.35;;;26.42;;
29384;SDS011;16367;48.736;9.218;2022-10-19T02:05:50;288.17;;;26.30;;
29384;SDS011;16367;48.736;9.218;2022-10-19T02:07:57;227.82;;;25.63;;
29384;SDS011;16367;48.736;9.218;2022-10-19T02:10:01;178.40;;;24.30;;
29384;SDS011;16367;48.736;9.218;2022-10-19T02:12:05;156.20;;;21.95;;
29384;SDS011;16367;48.736;9.218;2022-10-19T02:14:12;237.18;;;25.30;;
29384;SDS011;16367;48.736;9.218;2022-10-19T02:16:22;327.90;;;32.10;;
29384;SDS011;16367;48.736;9.218;2022-10-19T02:18:28;264.75;;;26.10;;
29384;SDS011;16367;48.736;9.218;2022-10-19T02:20:35;257.60;;;25.98;;
29384;SDS011;16367;48.736;9.218;2022-10-19T02:22:38;270.02;;;28.30;;
29384;SDS011;16367;48.736;9.218;2022-10-19T02:24:41;163.25;;;19.55;;
29384;SDS011;16367;48.736;9.218;2022-10-19T02:26:44;98.90;;;17.63;;
29384;SDS011;16367;48.736;9.218;2022-10-19T02:28:47;224.38;;;21.67;;
29384;SDS011;16367;48.736;9.218;2022-10-19T02:30:50;170.88;;;19.55;;
29384;SDS011;16367;48.736;9.218;2022-10-19T02:32:53;161.70;;;19.75;;
29384;SDS011;16367;48.736;9.218;2022-10-19T02:34:56;211.02;;;20.42;;
29384;SDS011;16367;48.736;9.218;2022-10-19T02:37:00;131.32;;;16.30;;
29384;SDS011;16367;48.736;9.218;2022-10-19T02:39:03;64.57;;;13.73;;
29384;SDS011;16367;48.736;9.218;2022-10-19T02:41:12;61.38;;;14.00;;
29384;SDS011;16367;48.736;9.218;2022-10-19T02:43:20;151.18;;;16.77;;
29384;SDS011;16367;48.736;9.218;2022-10-19T02:45:26;67.82;;;15.63;;
29384;SDS011;16367;48.736;9.218;2022-10-19T02:47:32;145.02;;;18.50;;
29384;SDS011;16367;48.736;9.218;2022-10-19T02:49:38;162.40;;;17.00;;
29384;SDS011;16367;48.736;9.218;2022-10-19T02:51:53;99.40;;;15.82;;
29384;SDS011;16367;48.736;9.218;2022-10-19T02:54:00;198.45;;;20.05;;
29384;SDS011;16367;48.736;9.218;2022-10-19T02:56:06;103.47;;;14.88;;
29384;SDS011;16367;48.736;9.218;2022-10-19T02:58:10;83.63;;;14.05;;
29384;SDS011;16367;48.736;9.218;2022-10-19T03:00:12;73.15;;;14.52;;
29384;SDS011;16367;48.736;9.218;2022-10-19T03:02:15;71.60;;;13.95;;
29384;SDS011;16367;48.736;9.218;2022-10-19T03:04:19;128.88;;;16.15;;
29384;SDS011;16367;48.736;9.218;2022-10-19T03:06:21;181.02;;;18.70;;
29384;SDS011;16367;48.736;9.218;2022-10-19T03:08:24;163.82;;;18.08;;
29384;SDS011;16367;48.736;9.218;2022-10-19T03:10:28;136.98;;;16.83;;
29384;SDS011;16367;48.736;9.218;2022-10-19T03:12:31;114.75;;;15.77;;
29384;SDS011;16367;48.736;9.218;2022-10-19T03:14:34;61.92;;;14.23;;
29384;SDS011;16367;48.736;9.218;2022-10-19T03:16:36;139.30;;;19.48;;
29384;SDS011;16367;48.736;9.218;2022-10-19T03:18:39;196.00;;;20.02;;
29384;SDS011;16367;48.736;9.218;2022-10-19T03:20:42;189.05;;;21.38;;
29384;SDS011;16367;48.736;9.218;2022-10-19T03:22:44;270.58;;;26.17;;
29384;SDS011;16367;48.736;9.218;2022-10-19T03:24:47;224.00;;;25.33;;
29384;SDS011;16367;48.736;9.218;2022-10-19T03:26:51;216.25;;;22.60;;
29384;SDS011;16367;48.736;9.218;2022-10-19T03:28:54;138.23;;;17.95;;
29384;SDS011;16367;48.736;9.218;2022-10-19T03:30:57;49.20;;;14.40;;
29384;SDS011;16367;48.736;9.218;2022-10-19T03:33:03;85.32;;;16.27;;
29384;SDS011;16367;48.736;9.218;2022-10-19T03:35:06;107.78;;;18.33;;
29384;SDS011;16367;48.736;9.218;2022-10-19T03:37:09;116.65;;;17.92;;
29384;SDS011;16367;48.736;9.218;2022-10-19T03:39:14;80.13;;;16.13;;
29384;SDS011;16367;48.736;9.218;2022-10-19T03:41:18;97.05;;;14.55;;
29384;SDS011;16367;48.736;9.218;2022-10-19T03:43:22;58.05;;;15.20;;
29384;SDS011;16367;48.736;9.218;2022-10-19T03:45:24;87.45;;;15.20;;
29384;SDS011;16367;48.736;9.218;2022-10-19T03:47:27;38.13;;;14.05;;
29384;SDS011;16367;48.736;9.218;2022-10-19T03:49:30;40.10;;;13.07;;
29384;SDS011;16367;48.736;9.218;2022-10-19T03:51:36;50.10;;;14.77;;
29384;SDS011;16367;48.736;9.218;2022-10-19T03:53:39;44.03;;;12.90;;
29384;SDS011;16367;48.736;9.218;2022-10-19T03:55:43;32.35;;;12.40;;
29384;SDS011;16367;48.736;9.218;2022-10-19T03:57:45;67.43;;;13.70;;
29384;SDS011;16367;48.736;9.218;2022-10-19T03:59:49;40.40;;;12.80;;
29384;SDS011;16367;48.736;9.218;2022-10-19T04:01:52;29.73;;;12.60;;
29384;SDS011;16367;48.736;9.218;2022-10-19T04:03:55;32.47;;;12.98;;
29384;SDS011;16367;48.736;9.218;2022-10-19T04:06:02;38.53;;;13.48;;
29384;SDS011;16367;48.736;9.218;2022-10-19T04:08:06;32.10;;;13.38;;
29384;SDS011;16367;48.736;9.218;2022-10-19T04:10:09;32.90;;;13.38;;
29384;SDS011;16367;48.736;9.218;2022-10-19T04:12:11;37.28;;;13.65;;
29384;SDS011;16367;48.736;9.218;2022-10-19T04:14:15;30.13;;;12.60;;
29384;SDS011;16367;48.736;9.218;2022-10-19T04:16:34;31.08;;;12.85;;
29384;SDS011;16367;48.736;9.218;2022-10-19T04:18:37;29.92;;;12.65;;
29384;SDS011;16367;48.736;9.218;2022-10-19T04:20:39;32.88;;;13.15;;
29384;SDS011;16367;48.736;9.218;2022-10-19T04:22:44;35.38;;;13.00;;
29384;SDS011;16367;48.736;9.218;2022-10-19T04:24:46;56.10;;;16.20;;
29384;SDS011;16367;48.736;9.218;2022-10-19T04:26:50;50.83;;;15.38;;
29384;SDS011;16367;48.736;9.218;2022-10-19T04:28:55;41.92;;;15.65;;
29384;SDS011;16367;48.736;9.218;2022-10-19T04:31:00;44.67;;;16.35;;
29384;SDS011;16367;48.736;9.218;2022-10-19T04:33:04;49.95;;;17.17;;
29384;SDS011;16367;48.736;9.218;2022-10-19T04:35:07;52.05;;;15.73;;
29384;SDS011;16367;48.736;9.218;2022-10-19T04:37:10;61.88;;;17.65;;
29384;SDS011;16367;48.736;9.218;2022-10-19T04:39:12;110.97;;;17.55;;
29384;SDS011;16367;48.736;9.218;2022-10-19T04:41:15;63.97;;;15.57;;
29384;SDS011;16367;48.736;9.218;2022-10-19T04:43:20;64.10;;;17.98;;
29384;SDS011;16367;48.736;9.218;2022-10-19T04:45:22;66.07;;;16.77;;
29384;SDS011;16367;48.736;9.218;2022-10-19T04:47:25;49.70;;;16.85;;
29384;SDS011;16367;48.736;9.218;2022-10-19T04:49:29;38.17;;;15.45;;
29384;SDS011;16367;48.736;9.218;2022-10-19T04:51:31;47.88;;;15.95;;
29384;SDS011;16367;48.736;9.218;2022-10-19T04:53:35;45.53;;;15.13;;
29384;SDS011;16367;48.736;9.218;2022-10-19T04:55:39;59.72;;;14.82;;
29384;SDS011;16367;48.736;9.218;2022-10-19T04:57:42;40.85;;;14.57;;
29384;SDS011;16367;48.736;9.218;2022-10-19T04:59:45;67.68;;;17.20;;
29384;SDS011;16367;48.736;9.218;2022-10-19T05:01:48;53.55;;;15.65;;
29384;SDS011;16367;48.736;9.218;2022-10-19T05:03:52;72.80;;;16.17;;
29384;SDS011;16367;48.736;9.218;2022-10-19T05:06:02;66.88;;;15.85;;
29384;SDS011;16367;48.736;9.218;2022-10-19T05:08:05;98.63;;;15.85;;
29384;SDS011;16367;48.736;9.218;2022-10-19T05:10:08;39.40;;;13.27;;
29384;SDS011;16367;48.736;9.218;2022-10-19T05:12:12;73.32;;;16.38;;
29384;SDS011;16367;48.736;9.218;2022-10-19T05:14:14;133.32;;;19.02;;
29384;SDS011;16367;48.736;9.218;2022-10-19T05:16:18;51.38;;;15.65;;
29384;SDS011;16367;48.736;9.218;2022-10-19T05:18:22;79.10;;;14.57;;
29384;SDS011;16367;48.736;9.218;2022-10-19T05:20:25;52.08;;;13.85;;
29384;SDS011;16367;48.736;9.218;2022-10-19T05:22:29;54.35;;;13.98;;
29384;SDS011;16367;48.736;9.218;2022-10-19T05:24:32;59.30;;;13.55;;
29384;SDS011;16367;48.736;9.218;2022-10-19T05:26:34;88.20;;;14.98;;
29384;SDS011;16367;48.736;9.218;2022-10-19T05:28:37;86.72;;;14.05;;
29384;SDS011;16367;48.736;9.218;2022-10-19T05:30:40;76.80;;;14.55;;
29384;SDS011;16367;48.736;9.218;2022-10-19T05:32:49;86.07;;;14.65;;
29384;SDS011;16367;48.736;9.218;2022-10-19T05:34:51;54.67;;;12.23;;
29384;SDS011;16367;48.736;9.218;2022-10-19T05:36:54;50.22;;;13.05;;
29384;SDS011;16367;48.736;9.218;2022-10-19T05:38:59;43.45;;;12.45;;
29384;SDS011;16367;48.736;9.218;2022-10-19T05:41:04;32.17;;;12.20;;
29384;SDS011;16367;48.736;9.218;2022-10-19T05:43:07;89.28;;;15.40;;
29384;SDS011;16367;48.736;9.218;2022-10-19T05:45:09;50.42;;;13.00;;
29384;SDS011;16367;48.736;9.218;2022-10-19T05:47:12;61.40;;;13.85;;
29384;SDS011;16367;48.736;9.218;2022-10-19T05:49:15;67.63;;;14.05;;
29384;SDS011;16367;48.736;9.218;2022-10-19T05:51:20;59.33;;;14.13;;
29384;SDS011;16367;48.736;9.218;2022-10-19T05:53:24;35.00;;;13.20;;
29384;SDS011;16367;48.736;9.218;2022-10-19T05:55:28;78.55;;;15.25;;
29384;SDS011;16367;48.736;9.218;2022-10-19T05:57:34;60.45;;;13.60;;
29384;SDS011;16367;48.736;9.218;2022-10-19T05:59:37;57.72;;;13.98;;
29384;SDS011;16367;48.736;9.218;2022-10-19T06:01:40;57.75;;;15.05;;
29384;SDS011;16367;48.736;9.218;2022-10-19T06:03:43;35.08;;;13.45;;
29384;SDS011;16367;48.736;9.218;2022-10-19T06:05:46;40.40;;;13.80;;
29384;SDS011;16367;48.736;9.218;2022-10-19T06:07:49;35.42;;;13.32;;
29384;SDS011;16367;48.736;9.218;2022-10-19T06:09:51;39.78;;;12.60;;
29384;SDS011;16367;48.736;9.218;2022-10-19T06:11:55;25.85;;;11.32;;
29384;SDS011;16367;48.736;9.218;2022-10-19T06:13:58;25.58;;;11.45;;
29384;SDS011;16367;48.736;9.218;2022-10-19T06:16:02;27.90;;;11.30;;
29384;SDS011;16367;48.736;9.218;2022-10-19T06:18:06;24.17;;;10.43;;
29384;SDS011;16367;48.736;9.218;2022-10-19T06:20:09;23.17;;;10.52;;
29384;SDS011;16367;48.736;9.218;2022-10-19T06:22:12;25.20;;;11.73;;
29384;SDS011;16367;48.736;9.218;2022-10-19T06:24:14;27.23;;;12.15;;
29384;SDS011;16367;48.736;9.218;2022-10-19T06:26:17;22.00;;;10.52;;
29384;SDS011;16367;48.736;9.218;2022-10-19T06:28:22;25.92;;;11.40;;
29384;SDS011;16367;48.736;9.218;2022-10-19T06:30:25;27.75;;;12.48;;
29384;SDS011;16367;48.736;9.218;2022-10-19T06:32:28;30.88;;;12.10;;
29384;SDS011;16367;48.736;9.218;2022-10-19T06:34:32;26.60;;;11.82;;
29384;SDS011;16367;48.736;9.218;2022-10-19T06:36:35;24.33;;;10.63;;
29384;SDS011;16367;48.736;9.218;2022-10-19T06:38:37;23.40;;;11.68;;
29384;SDS011;16367;48.736;9.218;2022-10-19T06:40:40;27.70;;;10.98;;
29384;SDS011;16367;48.736;9.218;2022-10-19T06:42:43;22.25;;;10.32;;
29384;SDS011;16367;48.736;9.218;2022-10-19T06:44:47;20.02;;;10.00;;
29384;SDS011;16367;48.736;9.218;2022-10-19T06:46:49;18.83;;;9.40;;
29384;SDS011;16367;48.736;9.218;2022-10-19T06:48:52;18.23;;;9.68;;
29384;SDS011;16367;48.736;9.218;2022-10-19T06:50:56;20.15;;;9.98;;
29384;SDS011;16367;48.736;9.218;2022-10-19T06:52:59;20.80;;;9.68;;
29384;SDS011;16367;48.736;9.218;2022-10-19T06:55:03;28.25;;;11.85;;
29384;SDS011;16367;48.736;9.218;2022-10-19T06:57:06;26.02;;;11.13;;
29384;SDS011;16367;48.736;9.218;2022-10-19T06:59:09;28.70;;;11.93;;
29384;SDS011;16367;48.736;9.218;2022-10-19T07:01:16;24.08;;;10.55;;
29384;SDS011;16367;48.736;9.218;2022-10-19T07:03:20;24.75;;;11.45;;
29384;SDS011;16367;48.736;9.218;2022-10-19T07:05:22;33.30;;;12.07;;
29384;SDS011;16367;48.736;9.218;2022-10-19T07:07:25;24.92;;;10.93;;
29384;SDS011;16367;48.736;9.218;2022-10-19T07:09:28;22.80;;;10.95;;
29384;SDS011;16367;48.736;9.218;2022-10-19T07:11:30;21.58;;;11.25;;
29384;SDS011;16367;48.736;9.218;2022-10-19T07:13:33;20.20;;;10.30;;
29384;SDS011;16367;48.736;9.218;2022-10-19T07:15:36;16.55;;;8.90;;
29384;SDS011;16367;48.736;9.218;2022-10-19T07:17:40;18.55;;;9.48;;
29384;SDS011;16367;48.736;9.218;2022-10-19T07:19:43;18.95;;;10.20;;
29384;SDS011;16367;48.736;9.218;2022-10-19T07:21:48;19.52;;;9.70;;
29384;SDS011;16367;48.736;9.218;2022-10-19T07:23:51;20.75;;;10.50;;
29384;SDS011;16367;48.736;9.218;2022-10-19T07:25:54;18.45;;;9.43;;
29384;SDS011;16367;48.736;9.218;2022-10-19T07:28:01;18.48;;;9.18;;
29384;SDS011;16367;48.736;9.218;2022-10-19T07:30:05;17.95;;;8.93;;
29384;SDS011;16367;48.736;9.218;2022-10-19T07:32:09;17.90;;;9.48;;
29384;SDS011;16367;48.736;9.218;2022-10-19T07:34:13;19.27;;;9.75;;
29384;SDS011;16367;48.736;9.218;2022-10-19T07:36:16;22.15;;;10.13;;
29384;SDS011;16367;48.736;9.218;2022-10-19T07:38:19;20.23;;;9.77;;
29384;SDS011;16367;48.736;9.218;2022-10-19T07:40:21;18.48;;;9.63;;
29384;SDS011;16367;48.736;9.218;2022-10-19T07:42:24;21.25;;;9.65;;
29384;SDS011;16367;48.736;9.218;2022-10-19T07:44:27;19.50;;;9.77;;
29384;SDS011;16367;48.736;9.218;2022-10-19T07:46:30;21.20;;;9.77;;
29384;SDS011;16367;48.736;9.218;2022-10-19T07:48:34;17.83;;;9.00;;
29384;SDS011;16367;48.736;9.218;2022-10-19T07:50:38;21.20;;;9.43;;
29384;SDS011;16367;48.736;9.218;2022-10-19T07:52:40;17.73;;;8.43;;
29384;SDS011;16367;48.736;9.218;2022-10-19T07:54:43;19.92;;;9.90;;
29384;SDS011;16367;48.736;9.218;2022-10-19T07:56:49;19.02;;;8.95;;
29384;SDS011;16367;48.736;9.218;2022-10-19T07:58:53;19.25;;;9.00;;
29384;SDS011;16367;48.736;9.218;2022-10-19T08:00:58;19.38;;;10.00;;
29384;SDS011;16367;48.736;9.218;2022-10-19T08:03:01;17.65;;;8.27;;
29384;SDS011;16367;48.736;9.218;2022-10-19T08:05:24;20.02;;;9.52;;
29384;SDS011;16367;48.736;9.218;2022-10-19T08:07:28;19.48;;;9.63;;
29384;SDS011;16367;48.736;9.218;2022-10-19T08:09:34;17.88;;;9.10;;
29384;SDS011;16367;48.736;9.218;2022-10-19T08:11:54;17.75;;;9.50;;
29384;SDS011;16367;48.736;9.218;2022-10-19T08:13:57;17.25;;;9.80;;
29384;SDS011;16367;48.736;9.218;2022-10-19T08:15:59;21.75;;;9.65;;
29384;SDS011;16367;48.736;9.218;2022-10-19T08:18:03;20.95;;;10.30;;
29384;SDS011;16367;48.736;9.218;2022-10-19T08:20:06;17.73;;;8.98;;
29384;SDS011;16367;48.736;9.218;2022-10-19T08:22:09;20.33;;;9.82;;
29384;SDS011;16367;48.736;9.218;2022-10-19T08:24:14;19.48;;;9.32;;
29384;SDS011;16367;48.736;9.218;2022-10-19T08:26:19;18.35;;;9.25;;
29384;SDS011;16367;48.736;9.218;2022-10-19T08:28:22;17.55;;;9.23;;
29384;SDS011;16367;48.736;9.218;2022-10-19T08:30:24;16.50;;;9.48;;
29384;SDS011;16367;48.736;9.218;2022-10-19T08:32:27;19.27;;;9.38;;
29384;SDS011;16367;48.736;9.218;2022-10-19T08:34:30;17.85;;;9.18;;
29384;SDS011;16367;48.736;9.218;2022-10-19T08:36:33;18.95;;;9.65;;
29384;SDS011;16367;48.736;9.218;2022-10-19T08:38:37;17.00;;;9.13;;
29384;SDS011;16367;48.736;9.218;2022-10-19T08:40:43;16.90;;;8.15;;
29384;SDS011;16367;48.736;9.218;2022-10-19T08:42:49;15.82;;;8.98;;
29384;SDS011;16367;48.736;9.218;2022-10-19T08:45:02;14.98;;;8.45;;
29384;SDS011;16367;48.736;9.218;2022-10-19T08:47:29;14.82;;;7.70;;
29384;SDS011;16367;48.736;9.218;2022-10-19T08:49:46;16.77;;;7.70;;
29384;SDS011;16367;48.736;9.218;2022-10-19T08:51:50;16.23;;;7.60;;
29384;SDS011;16367;48.736;9.218;2022-10-19T08:53:57;17.67;;;7.75;;
29384;SDS011;16367;48.736;9.218;2022-10-19T08:56:17;15.98;;;7.78;;
29384;SDS011;16367;48.736;9.218;2022-10-19T08:58:50;14.10;;;7.32;;
29384;SDS011;16367;48.736;9.218;2022-10-19T09:01:04;16.40;;;7.68;;
29384;SDS011;16367;48.736;9.218;2022-10-19T09:03:12;15.23;;;7.45;;
29384;SDS011;16367;48.736;9.218;2022-10-19T09:05:42;14.13;;;7.40;;
29384;SDS011;16367;48.736;9.218;2022-10-19T09:07:48;16.10;;;7.18;;
29384;SDS011;16367;48.736;9.218;2022-10-19T09:09:55;14.73;;;6.38;;
29384;SDS011;16367;48.736;9.218;2022-10-19T09:12:03;14.80;;;6.72;;
29384;SDS011;16367;48.736;9.218;2022-10-19T09:14:09;13.57;;;6.45;;
29384;SDS011;16367;48.736;9.218;2022-10-19T09:16:17;13.93;;;6.28;;
29384;SDS011;16367;48.736;9.218;2022-10-19T09:18:22;11.88;;;6.15;;
29384;SDS011;16367;48.736;9.218;2022-10-19T09:20:29;14.45;;;7.30;;
29384;SDS011;16367;48.736;9.218;2022-10-19T09:22:36;12.75;;;6.32;;
29384;SDS011;16367;48.736;9.218;2022-10-19T09:24:40;14.05;;;7.97;;
29384;SDS011;16367;48.736;9.218;2022-10-19T09:26:47;12.20;;;6.03;;
29384;SDS011;16367;48.736;9.218;2022-10-19T09:28:56;11.73;;;5.50;;
29384;SDS011;16367;48.736;9.218;2022-10-19T09:31:02;10.85;;;5.45;;
29384;SDS011;16367;48.736;9.218;2022-10-19T09:33:07;10.73;;;5.32;;
29384;SDS011;16367;48.736;9.218;2022-10-19T09:35:18;12.65;;;5.82;;
29384;SDS011;16367;48.736;9.218;2022-10-19T09:37:25;11.23;;;5.57;;
29384;SDS011;16367;48.736;9.218;2022-10-19T09:39:30;11.57;;;5.65;;
29384;SDS011;16367;48.736;9.218;2022-10-19T09:41:33;10.25;;;5.00;;
29384;SDS011;16367;48.736;9.218;2022-10-19T09:43:36;9.95;;;5.18;;
29384;SDS011;16367;48.736;9.218;2022-10-19T09:45:41;9.00;;;4.88;;
29384;SDS011;16367;48.736;9.218;2022-10-19T09:47:49;10.35;;;4.85;;
29384;SDS011;16367;48.736;9.218;2022-10-19T09:50:04;9.82;;;4.65;;
29384;SDS011;16367;48.736;9.218;2022-10-19T09:52:21;9.35;;;4.90;;
29384;SDS011;16367;48.736;9.218;2022-10-19T09:54:31;10.35;;;4.93;;
29384;SDS011;16367;48.736;9.218;2022-10-19T09:56:35;9.68;;;4.25;;
29384;SDS011;16367;48.736;9.218;2022-10-19T09:58:42;10.25;;;5.30;;
29384;SDS011;16367;48.736;9.218;2022-10-19T10:00:50;9.05;;;4.22;;
29384;SDS011;16367;48.736;9.218;2022-10-19T10:02:55;6.93;;;3.67;;
29384;SDS011;16367;48.736;9.218;2022-10-19T10:05:03;9.18;;;4.60;;
29384;SDS011;16367;48.736;9.218;2022-10-19T10:07:09;9.60;;;3.42;;
29384;SDS011;16367;48.736;9.218;2022-10-19T10:09:18;6.50;;;3.42;;
29384;SDS011;16367;48.736;9.218;2022-10-19T10:11:26;7.82;;;3.90;;
29384;SDS011;16367;48.736;9.218;2022-10-19T10:13:34;6.78;;;3.65;;
29384;SDS011;16367;48.736;9.218;2022-10-19T10:15:40;7.88;;;3.75;;
29384;SDS011;16367;48.736;9.218;2022-10-19T10:17:46;8.40;;;4.25;;
29384;SDS011;16367;48.736;9.218;2022-10-19T10:20:00;8.30;;;3.72;;
29384;SDS011;16367;48.736;9.218;2022-10-19T10:22:12;8.40;;;4.78;;
29384;SDS011;16367;48.736;9.218;2022-10-19T10:24:27;10.20;;;4.18;;
29384;SDS011;16367;48.736;9.218;2022-10-19T10:26:31;8.70;;;4.30;;
29384;SDS011;16367;48.736;9.218;2022-10-19T10:28:44;8.10;;;4.13;;
29384;SDS011;16367;48.736;9.218;2022-10-19T10:30:51;8.75;;;4.53;;
29384;SDS011;16367;48.736;9.218;2022-10-19T10:32:57;8.70;;;4.40;;
29384;SDS011;16367;48.736;9.218;2022-10-19T10:35:22;9.05;;;4.43;;
29384;SDS011;16367;48.736;9.218;2022-10-19T10:37:32;8.80;;;4.70;;
29384;SDS011;16367;48.736;9.218;2022-10-19T10:39:39;8.30;;;4.60;;
29384;SDS011;16367;48.736;9.218;2022-10-19T10:41:42;7.63;;;3.90;;
29384;SDS011;16367;48.736;9.218;2022-10-19T10:43:48;8.02;;;4.45;;
29384;SDS011;16367;48.736;9.218;2022-10-19T10:45:54;8.70;;;4.30;;
29384;SDS011;16367;48.736;9.218;2022-10-19T10:48:10;10.40;;;4.15;;
29384;SDS011;16367;48.736;9.218;2022-10-19T10:50:20;9.07;;;3.80;;
29384;SDS011;16367;48.736;9.218;2022-10-19T10:52:24;7.07;;;3.65;;
29384;SDS011;16367;48.736;9.218;2022-10-19T10:54:31;6.85;;;3.67;;
29384;SDS011;16367;48.736;9.218;2022-10-19T10:56:34;9.40;;;3.83;;
29384;SDS011;16367;48.736;9.218;2022-10-19T10:58:41;5.53;;;3.10;;
29384;SDS011;16367;48.736;9.218;2022-10-19T11:00:49;8.05;;;3.50;;
29384;SDS011;16367;48.736;9.218;2022-10-19T11:02:55;6.53;;;3.50;;
29384;SDS011;16367;48.736;9.218;2022-10-19T11:05:05;8.55;;;3.67;;
29384;SDS011;16367;48.736;9.218;2022-10-19T11:07:15;7.53;;;3.95;;
29384;SDS011;16367;48.736;9.218;2022-10-19T11:09:20;7.50;;;3.55;;
29384;SDS011;16367;48.736;9.218;2022-10-19T11:11:31;9.55;;;4.63;;
29384;SDS011;16367;48.736;9.218;2022-10-19T11:13:39;9.57;;;4.43;;
29384;SDS011;16367;48.736;9.218;2022-10-19T11:15:49;7.57;;;3.72;;
29384;SDS011;16367;48.736;9.218;2022-10-19T11:17:57;11.32;;;3.60;;
29384;SDS011;16367;48.736;9.218;2022-10-19T11:20:12;7.40;;;3.45;;
29384;SDS011;16367;48.736;9.218;2022-10-19T11:22:18;7.78;;;3.60;;
29384;SDS011;16367;48.736;9.218;2022-10-19T11:24:31;6.65;;;3.38;;
29384;SDS011;16367;48.736;9.218;2022-10-19T11:26:55;9.93;;;4.35;;
29384;SDS011;16367;48.736;9.218;2022-10-19T11:31:26;7.85;;;3.78;;
29384;SDS011;16367;48.736;9.218;2022-10-19T11:33:41;7.05;;;3.60;;
29384;SDS011;16367;48.736;9.218;2022-10-19T11:35:51;8.05;;;3.70;;
29384;SDS011;16367;48.736;9.218;2022-10-19T11:38:02;8.95;;;4.40;;
29384;SDS011;16367;48.736;9.218;2022-10-19T11:40:32;8.20;;;4.65;;
29384;SDS011;16367;48.736;9.218;2022-10-19T11:42:55;11.80;;;4.53;;
29384;SDS011;16367;48.736;9.218;2022-10-19T11:45:09;8.35;;;4.30;;
29384;SDS011;16367;48.736;9.218;2022-10-19T11:47:21;7.57;;;4.00;;
29384;SDS011;16367;48.736;9.218;2022-10-19T11:49:36;8.32;;;4.05;;
29384;SDS011;16367;48.736;9.218;2022-10-19T11:51:49;7.45;;;3.92;;
29384;SDS011;16367;48.736;9.218;2022-10-19T11:54:00;8.57;;;4.75;;
29384;SDS011;16367;48.736;9.218;2022-10-19T11:56:16;8.50;;;4.22;;
29384;SDS011;16367;48.736;9.218;2022-10-19T11:58:42;7.65;;;4.20;;
29384;SDS011;16367;48.736;9.218;2022-10-19T12:00:52;8.05;;;4.72;;
29384;SDS011;16367;48.736;9.218;2022-10-19T12:03:05;6.97;;;3.47;;
29384;SDS011;16367;48.736;9.218;2022-10-19T12:05:20;7.88;;;4.03;;
29384;SDS011;16367;48.736;9.218;2022-10-19T12:07:34;9.35;;;4.70;;
29384;SDS011;16367;48.736;9.218;2022-10-19T12:09:46;8.20;;;4.40;;
29384;SDS011;16367;48.736;9.218;2022-10-19T12:12:01;9.57;;;4.32;;
29384;SDS011;16367;48.736;9.218;2022-10-19T12:14:16;9.40;;;5.03;;
29384;SDS011;16367;48.736;9.218;2022-10-19T12:16:23;10.25;;;4.93;;
29384;SDS011;16367;48.736;9.218;2022-10-19T12:18:33;9.18;;;4.65;;
29384;SDS011;16367;48.736;9.218;2022-10-19T12:20:42;7.95;;;4.22;;
29384;SDS011;16367;48.736;9.218;2022-10-19T12:22:49;8.32;;;4.07;;
29384;SDS011;16367;48.736;9.218;2022-10-19T12:24:52;9.02;;;4.78;;
29384;SDS011;16367;48.736;9.218;2022-10-19T12:26:56;8.95;;;4.35;;